sensor_id;sensor_type;location;lat;lon;timestamp;temperature;humidity
24402;DHT22;12539;48.808;11.292;2022-07-23T00:01:23;26.70;49.40
24402;DHT22;12539;48.808;11.292;2022-07-23T00:03:49;26.70;49.80
24402;DHT22;12539;48.808;11.292;2022-07-23T00:06:15;26.70;49.70
24402;DHT22;12539;48.808;11.292;2022-07-23T00:08:41;26.70;49.50
24402;DHT22;12539;48.808;11.292;2022-07-23T00:11:07;26.70;49.20
24402;DHT22;12539;48.808;11.292;2022-07-23T00:13:33;26.70;49.20
24402;DHT22;12539;48.808;11.292;2022-07-23T00:15:59;26.70;48.60
24402;DHT22;12539;48.808;11.292;2022-07-23T00:18:25;26.80;48.20
24402;DHT22;12539;48.808;11.292;2022-07-23T00:20:51;26.70;48.10
24402;DHT22;12539;48.808;11.292;2022-07-23T00:23:16;26.70;48.10
24402;DHT22;12539;48.808;11.292;2022-07-23T00:25:42;26.70;48.30
24402;DHT22;12539;48.808;11.292;2022-07-23T00:28:08;26.60;49.00
24402;DHT22;12539;48.808;11.292;2022-07-23T00:30:34;26.60;49.50
24402;DHT22;12539;48.808;11.292;2022-07-23T00:33:02;26.60;49.80
24402;DHT22;12539;48.808;11.292;2022-07-23T00:35:33;26.70;50.00
24402;DHT22;12539;48.808;11.292;2022-07-23T00:38:01;26.70;50.20
24402;DHT22;12539;48.808;11.292;2022-07-23T00:40:28;26.70;50.20
24402;DHT22;12539;48.808;11.292;2022-07-23T00:42:54;26.70;50.00
24402;DHT22;12539;48.808;11.292;2022-07-23T00:45:20;26.70;49.90
24402;DHT22;12539;48.808;11.292;2022-07-23T00:47:46;26.50;49.50
24402;DHT22;12539;48.808;11.292;2022-07-23T00:50:13;26.40;49.80
24402;DHT22;12539;48.808;11.292;2022-07-23T00:52:39;26.40;50.30
24402;DHT22;12539;48.808;11.292;2022-07-23T00:55:06;26.40;50.40
24402;DHT22;12539;48.808;11.292;2022-07-23T00:57:33;26.40;50.60
24402;DHT22;12539;48.808;11.292;2022-07-23T00:59:59;26.50;50.60
24402;DHT22;12539;48.808;11.292;2022-07-23T01:02:26;26.50;50.70
24402;DHT22;12539;48.808;11.292;2022-07-23T01:04:52;26.50;50.60
24402;DHT22;12539;48.808;11.292;2022-07-23T01:07:18;26.60;50.50
24402;DHT22;12539;48.808;11.292;2022-07-23T01:09:45;26.60;50.10
24402;DHT22;12539;48.808;11.292;2022-07-23T01:12:11;26.60;49.60
24402;DHT22;12539;48.808;11.292;2022-07-23T01:14:37;26.60;49.70
24402;DHT22;12539;48.808;11.292;2022-07-23T01:17:03;26.60;49.80
24402;DHT22;12539;48.808;11.292;2022-07-23T01:19:29;26.60;49.30
24402;DHT22;12539;48.808;11.292;2022-07-23T01:21:57;26.60;49.10
24402;DHT22;12539;48.808;11.292;2022-07-23T01:24:23;26.60;49.20
24402;DHT22;12539;48.808;11.292;2022-07-23T01:26:50;26.50;49.60
24402;DHT22;12539;48.808;11.292;2022-07-23T01:29:16;26.40;50.00
24402;DHT22;12539;48.808;11.292;2022-07-23T01:31:42;26.30;50.30
24402;DHT22;12539;48.808;11.292;2022-07-23T01:34:09;26.30;50.90
24402;DHT22;12539;48.808;11.292;2022-07-23T01:36:35;26.20;51.50
24402;DHT22;12539;48.808;11.292;2022-07-23T01:39:02;26.10;52.10
24402;DHT22;12539;48.808;11.292;2022-07-23T01:41:28;26.00;52.70
24402;DHT22;12539;48.808;11.292;2022-07-23T01:43:54;26.00;53.30
24402;DHT22;12539;48.808;11.292;2022-07-23T01:46:19;25.90;53.70
24402;DHT22;12539;48.808;11.292;2022-07-23T01:48:45;25.90;54.40
24402;DHT22;12539;48.808;11.292;2022-07-23T01:51:11;25.90;54.70
24402;DHT22;12539;48.808;11.292;2022-07-23T01:53:37;25.80;54.70
24402;DHT22;12539;48.808;11.292;2022-07-23T01:56:02;25.80;54.80
24402;DHT22;12539;48.808;11.292;2022-07-23T01:58:29;25.80;55.20
24402;DHT22;12539;48.808;11.292;2022-07-23T02:00:55;25.80;55.70
24402;DHT22;12539;48.808;11.292;2022-07-23T02:03:21;25.70;55.90
24402;DHT22;12539;48.808;11.292;2022-07-23T02:05:47;25.70;56.30
24402;DHT22;12539;48.808;11.292;2022-07-23T02:08:13;25.70;56.50
24402;DHT22;12539;48.808;11.292;2022-07-23T02:10:39;25.50;57.00
24402;DHT22;12539;48.808;11.292;2022-07-23T02:13:05;25.50;57.70
24402;DHT22;12539;48.808;11.292;2022-07-23T02:15:30;25.40;57.80
24402;DHT22;12539;48.808;11.292;2022-07-23T02:17:56;25.30;58.60
24402;DHT22;12539;48.808;11.292;2022-07-23T02:20:22;25.20;59.00
24402;DHT22;12539;48.808;11.292;2022-07-23T02:22:48;25.20;58.90
24402;DHT22;12539;48.808;11.292;2022-07-23T02:25:14;25.20;59.10
24402;DHT22;12539;48.808;11.292;2022-07-23T02:27:40;25.10;59.20
24402;DHT22;12539;48.808;11.292;2022-07-23T02:30:07;25.10;59.50
24402;DHT22;12539;48.808;11.292;2022-07-23T02:32:33;25.10;60.10
24402;DHT22;12539;48.808;11.292;2022-07-23T02:34:59;25.00;60.20
24402;DHT22;12539;48.808;11.292;2022-07-23T02:37:24;25.00;60.60
24402;DHT22;12539;48.808;11.292;2022-07-23T02:39:50;24.90;60.80
24402;DHT22;12539;48.808;11.292;2022-07-23T02:42:16;24.80;61.10
24402;DHT22;12539;48.808;11.292;2022-07-23T02:44:43;24.70;61.80
24402;DHT22;12539;48.808;11.292;2022-07-23T02:47:09;24.60;62.20
24402;DHT22;12539;48.808;11.292;2022-07-23T02:49:34;24.50;62.90
24402;DHT22;12539;48.808;11.292;2022-07-23T02:52:00;24.50;62.90
24402;DHT22;12539;48.808;11.292;2022-07-23T02:54:26;24.40;62.90
24402;DHT22;12539;48.808;11.292;2022-07-23T02:56:52;24.40;62.30
24402;DHT22;12539;48.808;11.292;2022-07-23T02:59:18;24.50;62.00
24402;DHT22;12539;48.808;11.292;2022-07-23T03:01:45;24.60;61.90
24402;DHT22;12539;48.808;11.292;2022-07-23T03:04:11;24.60;62.00
24402;DHT22;12539;48.808;11.292;2022-07-23T03:06:37;24.70;62.20
24402;DHT22;12539;48.808;11.292;2022-07-23T03:09:04;24.70;61.60
24402;DHT22;12539;48.808;11.292;2022-07-23T03:11:30;24.80;61.60
24402;DHT22;12539;48.808;11.292;2022-07-23T03:13:56;24.80;61.00
24402;DHT22;12539;48.808;11.292;2022-07-23T03:16:22;24.90;60.70
24402;DHT22;12539;48.808;11.292;2022-07-23T03:18:47;25.00;60.70
24402;DHT22;12539;48.808;11.292;2022-07-23T03:21:13;25.00;60.60
24402;DHT22;12539;48.808;11.292;2022-07-23T03:23:39;25.00;60.90
24402;DHT22;12539;48.808;11.292;2022-07-23T03:26:05;24.90;61.10
24402;DHT22;12539;48.808;11.292;2022-07-23T03:28:30;24.80;61.00
24402;DHT22;12539;48.808;11.292;2022-07-23T03:30:56;24.70;60.90
24402;DHT22;12539;48.808;11.292;2022-07-23T03:33:22;24.70;61.50
24402;DHT22;12539;48.808;11.292;2022-07-23T03:35:48;24.70;61.60
24402;DHT22;12539;48.808;11.292;2022-07-23T03:38:15;24.70;61.50
24402;DHT22;12539;48.808;11.292;2022-07-23T03:40:40;24.70;61.40
24402;DHT22;12539;48.808;11.292;2022-07-23T03:43:06;24.80;61.40
24402;DHT22;12539;48.808;11.292;2022-07-23T03:45:32;24.80;61.40
24402;DHT22;12539;48.808;11.292;2022-07-23T03:47:58;24.80;61.30
24402;DHT22;12539;48.808;11.292;2022-07-23T03:50:24;24.80;61.30
24402;DHT22;12539;48.808;11.292;2022-07-23T03:52:50;24.80;61.10
24402;DHT22;12539;48.808;11.292;2022-07-23T03:55:16;24.80;61.10
24402;DHT22;12539;48.808;11.292;2022-07-23T03:57:42;24.80;61.10
24402;DHT22;12539;48.808;11.292;2022-07-23T04:00:09;24.70;61.00
24402;DHT22;12539;48.808;11.292;2022-07-23T04:02:36;24.70;61.00
24402;DHT22;12539;48.808;11.292;2022-07-23T04:05:02;24.70;60.80
24402;DHT22;12539;48.808;11.292;2022-07-23T04:07:28;24.70;61.20
24402;DHT22;12539;48.808;11.292;2022-07-23T04:09:54;24.60;61.30
24402;DHT22;12539;48.808;11.292;2022-07-23T04:12:19;24.50;62.30
24402;DHT22;12539;48.808;11.292;2022-07-23T04:14:45;24.50;61.80
24402;DHT22;12539;48.808;11.292;2022-07-23T04:17:11;24.40;62.00
24402;DHT22;12539;48.808;11.292;2022-07-23T04:19:37;24.40;62.30
24402;DHT22;12539;48.808;11.292;2022-07-23T04:22:07;24.30;62.40
24402;DHT22;12539;48.808;11.292;2022-07-23T04:24:33;24.30;62.60
24402;DHT22;12539;48.808;11.292;2022-07-23T04:26:58;24.30;63.20
24402;DHT22;12539;48.808;11.292;2022-07-23T04:29:24;24.20;64.00
24402;DHT22;12539;48.808;11.292;2022-07-23T04:31:50;24.20;63.40
24402;DHT22;12539;48.808;11.292;2022-07-23T04:34:16;24.30;63.40
24402;DHT22;12539;48.808;11.292;2022-07-23T04:36:41;24.40;62.90
24402;DHT22;12539;48.808;11.292;2022-07-23T04:39:07;24.40;62.60
24402;DHT22;12539;48.808;11.292;2022-07-23T04:41:33;24.50;62.10
24402;DHT22;12539;48.808;11.292;2022-07-23T04:44:00;24.60;62.00
24402;DHT22;12539;48.808;11.292;2022-07-23T04:46:25;24.70;61.80
24402;DHT22;12539;48.808;11.292;2022-07-23T04:48:51;24.80;61.30
24402;DHT22;12539;48.808;11.292;2022-07-23T04:51:17;24.80;61.50
24402;DHT22;12539;48.808;11.292;2022-07-23T04:53:43;24.80;61.60
24402;DHT22;12539;48.808;11.292;2022-07-23T04:56:08;24.90;61.40
24402;DHT22;12539;48.808;11.292;2022-07-23T04:58:34;25.00;61.10
24402;DHT22;12539;48.808;11.292;2022-07-23T05:01:00;25.00;60.70
24402;DHT22;12539;48.808;11.292;2022-07-23T05:03:25;25.10;61.00
24402;DHT22;12539;48.808;11.292;2022-07-23T05:05:51;25.10;60.90
24402;DHT22;12539;48.808;11.292;2022-07-23T05:08:17;25.10;60.80
24402;DHT22;12539;48.808;11.292;2022-07-23T05:10:42;25.10;60.50
24402;DHT22;12539;48.808;11.292;2022-07-23T05:13:08;25.20;60.50
24402;DHT22;12539;48.808;11.292;2022-07-23T05:15:34;25.30;60.20
24402;DHT22;12539;48.808;11.292;2022-07-23T05:18:00;25.30;59.90
24402;DHT22;12539;48.808;11.292;2022-07-23T05:20:26;25.30;60.00
24402;DHT22;12539;48.808;11.292;2022-07-23T05:22:51;25.30;60.50
24402;DHT22;12539;48.808;11.292;2022-07-23T05:25:17;25.30;60.60
24402;DHT22;12539;48.808;11.292;2022-07-23T05:27:43;25.30;60.60
24402;DHT22;12539;48.808;11.292;2022-07-23T05:30:09;25.40;60.80
24402;DHT22;12539;48.808;11.292;2022-07-23T05:32:35;25.40;61.30
24402;DHT22;12539;48.808;11.292;2022-07-23T05:35:03;25.50;60.20
24402;DHT22;12539;48.808;11.292;2022-07-23T05:37:29;25.60;60.00
24402;DHT22;12539;48.808;11.292;2022-07-23T05:39:55;25.70;59.60
24402;DHT22;12539;48.808;11.292;2022-07-23T05:42:20;25.70;59.20
24402;DHT22;12539;48.808;11.292;2022-07-23T05:44:46;25.80;59.00
24402;DHT22;12539;48.808;11.292;2022-07-23T05:47:12;25.90;58.90
24402;DHT22;12539;48.808;11.292;2022-07-23T05:49:38;26.00;58.60
24402;DHT22;12539;48.808;11.292;2022-07-23T05:52:05;26.10;58.80
24402;DHT22;12539;48.808;11.292;2022-07-23T05:54:34;26.30;58.50
24402;DHT22;12539;48.808;11.292;2022-07-23T05:57:01;26.40;58.30
24402;DHT22;12539;48.808;11.292;2022-07-23T05:59:26;26.50;58.00
24402;DHT22;12539;48.808;11.292;2022-07-23T06:01:52;26.60;57.90
24402;DHT22;12539;48.808;11.292;2022-07-23T06:04:18;26.60;57.70
24402;DHT22;12539;48.808;11.292;2022-07-23T06:06:43;26.60;57.70
24402;DHT22;12539;48.808;11.292;2022-07-23T06:09:09;26.50;57.70
24402;DHT22;12539;48.808;11.292;2022-07-23T06:11:36;26.40;57.90
24402;DHT22;12539;48.808;11.292;2022-07-23T06:14:02;26.50;58.10
24402;DHT22;12539;48.808;11.292;2022-07-23T06:16:28;26.40;58.20
24402;DHT22;12539;48.808;11.292;2022-07-23T06:18:53;26.40;58.50
24402;DHT22;12539;48.808;11.292;2022-07-23T06:21:19;26.40;58.40
24402;DHT22;12539;48.808;11.292;2022-07-23T06:23:45;26.50;58.20
24402;DHT22;12539;48.808;11.292;2022-07-23T06:26:11;26.60;57.90
24402;DHT22;12539;48.808;11.292;2022-07-23T06:28:36;26.60;57.70
24402;DHT22;12539;48.808;11.292;2022-07-23T06:31:02;26.60;57.80
24402;DHT22;12539;48.808;11.292;2022-07-23T06:33:28;26.60;57.80
24402;DHT22;12539;48.808;11.292;2022-07-23T06:35:53;26.60;58.30
24402;DHT22;12539;48.808;11.292;2022-07-23T06:38:19;26.50;59.10
24402;DHT22;12539;48.808;11.292;2022-07-23T06:40:45;26.80;59.00
24402;DHT22;12539;48.808;11.292;2022-07-23T06:43:10;27.00;58.80
24402;DHT22;12539;48.808;11.292;2022-07-23T06:45:36;27.20;58.40
24402;DHT22;12539;48.808;11.292;2022-07-23T06:48:02;27.30;58.10
24402;DHT22;12539;48.808;11.292;2022-07-23T06:50:29;27.40;57.80
24402;DHT22;12539;48.808;11.292;2022-07-23T06:52:55;28.00;57.20
24402;DHT22;12539;48.808;11.292;2022-07-23T06:55:21;28.70;55.70
24402;DHT22;12539;48.808;11.292;2022-07-23T06:57:47;29.50;54.20
24402;DHT22;12539;48.808;11.292;2022-07-23T07:00:13;30.20;52.80
24402;DHT22;12539;48.808;11.292;2022-07-23T07:02:39;30.90;51.20
24402;DHT22;12539;48.808;11.292;2022-07-23T07:05:05;31.60;49.50
24402;DHT22;12539;48.808;11.292;2022-07-23T07:07:30;32.80;47.70
24402;DHT22;12539;48.808;11.292;2022-07-23T07:09:56;33.30;46.00
24402;DHT22;12539;48.808;11.292;2022-07-23T07:12:22;32.90;45.60
24402;DHT22;12539;48.808;11.292;2022-07-23T07:14:47;32.60;45.80
24402;DHT22;12539;48.808;11.292;2022-07-23T07:17:13;32.30;46.20
24402;DHT22;12539;48.808;11.292;2022-07-23T07:19:40;31.90;46.70
24402;DHT22;12539;48.808;11.292;2022-07-23T07:22:06;31.70;47.00
24402;DHT22;12539;48.808;11.292;2022-07-23T07:24:32;31.40;47.20
24402;DHT22;12539;48.808;11.292;2022-07-23T07:26:58;31.30;47.40
24402;DHT22;12539;48.808;11.292;2022-07-23T07:29:24;31.60;47.50
24402;DHT22;12539;48.808;11.292;2022-07-23T07:31:49;31.50;46.80
24402;DHT22;12539;48.808;11.292;2022-07-23T07:34:15;31.10;47.30
24402;DHT22;12539;48.808;11.292;2022-07-23T07:36:41;30.90;47.80
24402;DHT22;12539;48.808;11.292;2022-07-23T07:39:08;30.90;48.00
24402;DHT22;12539;48.808;11.292;2022-07-23T07:41:36;30.90;48.20
24402;DHT22;12539;48.808;11.292;2022-07-23T07:44:01;30.90;48.20
24402;DHT22;12539;48.808;11.292;2022-07-23T07:46:27;31.20;47.40
24402;DHT22;12539;48.808;11.292;2022-07-23T07:48:53;31.20;47.20
24402;DHT22;12539;48.808;11.292;2022-07-23T07:51:19;31.10;46.90
24402;DHT22;12539;48.808;11.292;2022-07-23T07:53:45;31.00;46.80
24402;DHT22;12539;48.808;11.292;2022-07-23T07:56:10;31.00;47.00
24402;DHT22;12539;48.808;11.292;2022-07-23T07:58:36;31.00;46.60
24402;DHT22;12539;48.808;11.292;2022-07-23T08:01:02;30.80;46.50
24402;DHT22;12539;48.808;11.292;2022-07-23T08:03:28;30.80;46.70
24402;DHT22;12539;48.808;11.292;2022-07-23T08:05:54;30.90;46.60
24402;DHT22;12539;48.808;11.292;2022-07-23T08:08:19;30.90;46.10
24402;DHT22;12539;48.808;11.292;2022-07-23T08:10:45;30.80;46.00
24402;DHT22;12539;48.808;11.292;2022-07-23T08:13:15;30.80;46.10
24402;DHT22;12539;48.808;11.292;2022-07-23T08:15:42;30.80;46.60
24402;DHT22;12539;48.808;11.292;2022-07-23T08:18:08;30.90;46.70
24402;DHT22;12539;48.808;11.292;2022-07-23T08:20:34;31.00;46.50
24402;DHT22;12539;48.808;11.292;2022-07-23T08:23:04;31.10;46.50
24402;DHT22;12539;48.808;11.292;2022-07-23T08:25:33;31.10;46.10
24402;DHT22;12539;48.808;11.292;2022-07-23T08:28:01;31.10;45.90
24402;DHT22;12539;48.808;11.292;2022-07-23T08:30:28;31.10;46.00
24402;DHT22;12539;48.808;11.292;2022-07-23T08:35:36;30.90;46.30
24402;DHT22;12539;48.808;11.292;2022-07-23T08:38:05;30.70;46.80
24402;DHT22;12539;48.808;11.292;2022-07-23T08:40:33;30.60;47.40
24402;DHT22;12539;48.808;11.292;2022-07-23T08:42:59;30.70;47.50
24402;DHT22;12539;48.808;11.292;2022-07-23T08:45:27;30.70;47.60
24402;DHT22;12539;48.808;11.292;2022-07-23T08:47:54;30.60;47.90
24402;DHT22;12539;48.808;11.292;2022-07-23T08:50:23;30.50;48.40
24402;DHT22;12539;48.808;11.292;2022-07-23T08:52:50;30.50;48.80
24402;DHT22;12539;48.808;11.292;2022-07-23T08:55:20;30.70;48.50
24402;DHT22;12539;48.808;11.292;2022-07-23T08:57:49;30.70;48.30
24402;DHT22;12539;48.808;11.292;2022-07-23T09:00:15;30.80;48.10
24402;DHT22;12539;48.808;11.292;2022-07-23T09:02:43;30.90;48.20
24402;DHT22;12539;48.808;11.292;2022-07-23T09:05:10;31.00;47.60
24402;DHT22;12539;48.808;11.292;2022-07-23T09:08:02;31.10;47.20
24402;DHT22;12539;48.808;11.292;2022-07-23T09:10:24;31.10;47.10
24402;DHT22;12539;48.808;11.292;2022-07-23T09:12:49;31.30;47.30
24402;DHT22;12539;48.808;11.292;2022-07-23T09:15:15;31.30;47.10
24402;DHT22;12539;48.808;11.292;2022-07-23T09:17:42;31.40;47.00
24402;DHT22;12539;48.808;11.292;2022-07-23T09:20:16;31.50;46.70
24402;DHT22;12539;48.808;11.292;2022-07-23T09:22:47;31.60;45.90
24402;DHT22;12539;48.808;11.292;2022-07-23T09:25:16;31.80;45.30
24402;DHT22;12539;48.808;11.292;2022-07-23T09:30:16;31.70;45.60
24402;DHT22;12539;48.808;11.292;2022-07-23T09:32:42;31.80;45.60
24402;DHT22;12539;48.808;11.292;2022-07-23T09:35:08;32.00;45.30
24402;DHT22;12539;48.808;11.292;2022-07-23T09:37:34;32.10;44.90
24402;DHT22;12539;48.808;11.292;2022-07-23T09:40:08;32.20;44.50
24402;DHT22;12539;48.808;11.292;2022-07-23T09:42:34;32.40;44.00
24402;DHT22;12539;48.808;11.292;2022-07-23T09:45:01;32.50;44.30
24402;DHT22;12539;48.808;11.292;2022-07-23T09:47:28;32.90;43.70
24402;DHT22;12539;48.808;11.292;2022-07-23T09:50:02;33.40;43.30
24402;DHT22;12539;48.808;11.292;2022-07-23T09:52:33;33.70;41.90
24402;DHT22;12539;48.808;11.292;2022-07-23T09:55:04;33.80;41.30
24402;DHT22;12539;48.808;11.292;2022-07-23T09:57:31;33.90;41.10
24402;DHT22;12539;48.808;11.292;2022-07-23T10:00:00;33.90;40.70
24402;DHT22;12539;48.808;11.292;2022-07-23T10:02:28;33.90;40.70
24402;DHT22;12539;48.808;11.292;2022-07-23T10:04:57;33.70;40.60
24402;DHT22;12539;48.808;11.292;2022-07-23T10:07:26;33.70;40.80
24402;DHT22;12539;48.808;11.292;2022-07-23T10:09:53;33.70;40.70
24402;DHT22;12539;48.808;11.292;2022-07-23T10:12:19;33.60;40.60
24402;DHT22;12539;48.808;11.292;2022-07-23T10:14:49;33.50;40.50
24402;DHT22;12539;48.808;11.292;2022-07-23T10:17:15;33.70;40.40
24402;DHT22;12539;48.808;11.292;2022-07-23T10:19:41;33.70;40.10
24402;DHT22;12539;48.808;11.292;2022-07-23T10:22:29;33.80;39.50
24402;DHT22;12539;48.808;11.292;2022-07-23T10:25:24;33.90;38.20
24402;DHT22;12539;48.808;11.292;2022-07-23T10:30:41;34.30;38.20
24402;DHT22;12539;48.808;11.292;2022-07-23T10:38:42;34.70;36.80
24402;DHT22;12539;48.808;11.292;2022-07-23T10:41:11;34.60;36.70
24402;DHT22;12539;48.808;11.292;2022-07-23T10:43:37;34.60;36.70
24402;DHT22;12539;48.808;11.292;2022-07-23T10:46:29;34.80;37.00
24402;DHT22;12539;48.808;11.292;2022-07-23T10:49:24;35.00;36.70
24402;DHT22;12539;48.808;11.292;2022-07-23T10:54:42;35.30;35.90
24402;DHT22;12539;48.808;11.292;2022-07-23T10:57:09;35.30;35.80
24402;DHT22;12539;48.808;11.292;2022-07-23T11:02:26;35.70;34.90
24402;DHT22;12539;48.808;11.292;2022-07-23T11:04:53;35.60;34.60
24402;DHT22;12539;48.808;11.292;2022-07-23T11:07:19;35.60;34.70
24402;DHT22;12539;48.808;11.292;2022-07-23T11:09:45;35.60;34.80
24402;DHT22;12539;48.808;11.292;2022-07-23T11:17:28;35.20;34.00
24402;DHT22;12539;48.808;11.292;2022-07-23T11:22:39;35.30;33.70
24402;DHT22;12539;48.808;11.292;2022-07-23T11:25:04;35.40;33.40
24402;DHT22;12539;48.808;11.292;2022-07-23T11:27:44;35.30;33.30
24402;DHT22;12539;48.808;11.292;2022-07-23T11:35:35;35.50;33.00
24402;DHT22;12539;48.808;11.292;2022-07-23T11:38:19;35.30;32.80
24402;DHT22;12539;48.808;11.292;2022-07-23T11:40:48;35.10;33.40
24402;DHT22;12539;48.808;11.292;2022-07-23T11:43:15;34.90;33.90
24402;DHT22;12539;48.808;11.292;2022-07-23T11:45:52;34.90;33.70
24402;DHT22;12539;48.808;11.292;2022-07-23T11:48:31;35.00;33.50
24402;DHT22;12539;48.808;11.292;2022-07-23T11:50:58;34.90;33.80
24402;DHT22;12539;48.808;11.292;2022-07-23T11:53:31;35.00;33.90
24402;DHT22;12539;48.808;11.292;2022-07-23T11:56:04;35.00;33.60
24402;DHT22;12539;48.808;11.292;2022-07-23T11:58:30;34.90;34.00
24402;DHT22;12539;48.808;11.292;2022-07-23T12:00:56;34.80;34.20
24402;DHT22;12539;48.808;11.292;2022-07-23T12:03:22;34.90;33.90
24402;DHT22;12539;48.808;11.292;2022-07-23T12:05:48;34.80;34.00
24402;DHT22;12539;48.808;11.292;2022-07-23T12:08:14;34.80;34.10
24402;DHT22;12539;48.808;11.292;2022-07-23T12:10:44;34.80;34.10
24402;DHT22;12539;48.808;11.292;2022-07-23T12:13:15;34.90;34.40
24402;DHT22;12539;48.808;11.292;2022-07-23T12:15:46;35.00;34.70
24402;DHT22;12539;48.808;11.292;2022-07-23T12:18:22;35.00;34.50
24402;DHT22;12539;48.808;11.292;2022-07-23T12:20:54;35.00;34.20
24402;DHT22;12539;48.808;11.292;2022-07-23T12:23:22;35.00;34.00
24402;DHT22;12539;48.808;11.292;2022-07-23T12:25:50;35.10;33.80
24402;DHT22;12539;48.808;11.292;2022-07-23T12:28:18;35.10;33.90
24402;DHT22;12539;48.808;11.292;2022-07-23T12:30:52;35.10;34.00
24402;DHT22;12539;48.808;11.292;2022-07-23T12:33:30;35.30;33.90
24402;DHT22;12539;48.808;11.292;2022-07-23T12:35:59;35.50;33.30
24402;DHT22;12539;48.808;11.292;2022-07-23T12:38:27;35.50;32.70
24402;DHT22;12539;48.808;11.292;2022-07-23T12:40:58;35.50;32.70
24402;DHT22;12539;48.808;11.292;2022-07-23T12:43:33;35.60;32.60
24402;DHT22;12539;48.808;11.292;2022-07-23T12:48:34;35.70;31.90
24402;DHT22;12539;48.808;11.292;2022-07-23T12:51:07;35.50;32.20
24402;DHT22;12539;48.808;11.292;2022-07-23T12:53:38;35.30;32.30
24402;DHT22;12539;48.808;11.292;2022-07-23T12:56:12;35.10;32.70
24402;DHT22;12539;48.808;11.292;2022-07-23T12:58:44;35.20;32.90
24402;DHT22;12539;48.808;11.292;2022-07-23T13:04:24;35.30;32.40
24402;DHT22;12539;48.808;11.292;2022-07-23T13:06:56;35.20;32.60
24402;DHT22;12539;48.808;11.292;2022-07-23T13:09:30;35.10;32.80
24402;DHT22;12539;48.808;11.292;2022-07-23T13:11:57;34.90;32.80
24402;DHT22;12539;48.808;11.292;2022-07-23T13:14:25;34.70;33.30
24402;DHT22;12539;48.808;11.292;2022-07-23T13:16:52;34.50;33.70
24402;DHT22;12539;48.808;11.292;2022-07-23T13:19:18;34.20;34.30
24402;DHT22;12539;48.808;11.292;2022-07-23T13:21:45;34.00;34.80
24402;DHT22;12539;48.808;11.292;2022-07-23T13:24:12;33.80;35.10
24402;DHT22;12539;48.808;11.292;2022-07-23T13:26:38;33.80;35.30
24402;DHT22;12539;48.808;11.292;2022-07-23T13:29:05;33.80;35.40
24402;DHT22;12539;48.808;11.292;2022-07-23T13:31:31;34.00;35.20
24402;DHT22;12539;48.808;11.292;2022-07-23T13:33:56;34.20;34.90
24402;DHT22;12539;48.808;11.292;2022-07-23T13:36:22;34.30;34.70
24402;DHT22;12539;48.808;11.292;2022-07-23T13:38:48;34.50;34.20
24402;DHT22;12539;48.808;11.292;2022-07-23T13:41:13;34.40;33.60
24402;DHT22;12539;48.808;11.292;2022-07-23T13:43:42;34.40;33.90
24402;DHT22;12539;48.808;11.292;2022-07-23T13:46:07;34.40;33.80
24402;DHT22;12539;48.808;11.292;2022-07-23T13:48:33;34.20;33.70
24402;DHT22;12539;48.808;11.292;2022-07-23T13:50:59;34.10;34.20
24402;DHT22;12539;48.808;11.292;2022-07-23T13:53:24;34.00;34.10
24402;DHT22;12539;48.808;11.292;2022-07-23T13:55:52;33.90;34.10
24402;DHT22;12539;48.808;11.292;2022-07-23T13:58:18;33.70;34.40
24402;DHT22;12539;48.808;11.292;2022-07-23T14:00:50;33.70;35.00
24402;DHT22;12539;48.808;11.292;2022-07-23T14:03:17;33.60;35.30
24402;DHT22;12539;48.808;11.292;2022-07-23T14:05:43;33.60;36.00
24402;DHT22;12539;48.808;11.292;2022-07-23T14:08:09;33.50;36.10
24402;DHT22;12539;48.808;11.292;2022-07-23T14:10:35;33.40;36.20
24402;DHT22;12539;48.808;11.292;2022-07-23T14:13:01;33.50;36.70
24402;DHT22;12539;48.808;11.292;2022-07-23T14:15:29;33.50;38.00
24402;DHT22;12539;48.808;11.292;2022-07-23T14:17:55;33.30;38.70
24402;DHT22;12539;48.808;11.292;2022-07-23T14:20:22;33.40;38.60
24402;DHT22;12539;48.808;11.292;2022-07-23T14:23:02;33.70;37.80
24402;DHT22;12539;48.808;11.292;2022-07-23T14:25:28;34.00;37.20
24402;DHT22;12539;48.808;11.292;2022-07-23T14:27:54;34.30;36.40
24402;DHT22;12539;48.808;11.292;2022-07-23T14:30:20;34.70;36.30
24402;DHT22;12539;48.808;11.292;2022-07-23T14:32:50;34.90;35.70
24402;DHT22;12539;48.808;11.292;2022-07-23T14:35:31;35.10;34.60
24402;DHT22;12539;48.808;11.292;2022-07-23T14:38:11;35.40;33.70
24402;DHT22;12539;48.808;11.292;2022-07-23T14:40:46;35.50;33.80
24402;DHT22;12539;48.808;11.292;2022-07-23T14:43:11;35.40;33.40
24402;DHT22;12539;48.808;11.292;2022-07-23T14:45:40;35.40;33.70
24402;DHT22;12539;48.808;11.292;2022-07-23T14:48:06;35.50;33.80
24402;DHT22;12539;48.808;11.292;2022-07-23T14:50:32;35.50;33.50
24402;DHT22;12539;48.808;11.292;2022-07-23T14:52:58;35.30;33.50
24402;DHT22;12539;48.808;11.292;2022-07-23T14:55:24;35.00;34.00
24402;DHT22;12539;48.808;11.292;2022-07-23T14:57:49;34.80;34.60
24402;DHT22;12539;48.808;11.292;2022-07-23T15:00:16;34.50;35.10
24402;DHT22;12539;48.808;11.292;2022-07-23T15:02:42;34.30;36.40
24402;DHT22;12539;48.808;11.292;2022-07-23T15:05:08;34.10;37.50
24402;DHT22;12539;48.808;11.292;2022-07-23T15:07:33;33.80;38.10
24402;DHT22;12539;48.808;11.292;2022-07-23T15:09:59;33.70;38.30
24402;DHT22;12539;48.808;11.292;2022-07-23T15:12:25;33.60;38.50
24402;DHT22;12539;48.808;11.292;2022-07-23T15:14:51;33.40;38.20
24402;DHT22;12539;48.808;11.292;2022-07-23T15:17:16;33.30;38.50
24402;DHT22;12539;48.808;11.292;2022-07-23T15:19:42;33.40;38.80
24402;DHT22;12539;48.808;11.292;2022-07-23T15:22:08;33.40;38.60
24402;DHT22;12539;48.808;11.292;2022-07-23T15:24:33;33.40;38.10
24402;DHT22;12539;48.808;11.292;2022-07-23T15:26:59;33.50;38.30
24402;DHT22;12539;48.808;11.292;2022-07-23T15:29:25;33.60;39.00
24402;DHT22;12539;48.808;11.292;2022-07-23T15:31:51;33.80;39.50
24402;DHT22;12539;48.808;11.292;2022-07-23T15:34:16;33.90;39.40
24402;DHT22;12539;48.808;11.292;2022-07-23T15:36:42;33.90;39.60
24402;DHT22;12539;48.808;11.292;2022-07-23T15:39:08;34.00;39.30
24402;DHT22;12539;48.808;11.292;2022-07-23T15:41:34;34.00;38.80
24402;DHT22;12539;48.808;11.292;2022-07-23T15:43:59;33.90;38.70
24402;DHT22;12539;48.808;11.292;2022-07-23T15:46:25;33.90;38.80
24402;DHT22;12539;48.808;11.292;2022-07-23T15:48:51;33.90;38.80
24402;DHT22;12539;48.808;11.292;2022-07-23T15:51:17;33.80;38.80
24402;DHT22;12539;48.808;11.292;2022-07-23T15:53:43;33.80;39.00